createdAt,value
2018-06-22T00:01:32.875Z,19.50
2018-06-22T00:04:03.532Z,19.50
2018-06-22T00:06:34.277Z,19.50
2018-06-22T00:09:06.639Z,19.50
2018-06-22T00:11:37.259Z,19.50
2018-06-22T00:14:08.270Z,19.40
2018-06-22T00:19:09.152Z,19.40
2018-06-22T00:21:39.766Z,19.30
2018-06-22T00:24:10.310Z,19.10
2018-06-22T00:26:40.872Z,19.10
2018-06-22T00:29:11.466Z,19.00
2018-06-22T00:31:42.069Z,19.00
2018-06-22T00:34:12.609Z,18.90
2018-06-22T00:36:43.117Z,18.80
2018-06-22T00:41:43.816Z,18.70
2018-06-22T00:44:14.333Z,18.70
2018-06-22T00:46:44.879Z,18.60
2018-06-22T00:49:15.402Z,18.50
2018-06-22T00:51:45.991Z,18.50
2018-06-22T00:56:48.085Z,18.40
2018-06-22T00:59:18.667Z,18.40
2018-06-22T01:01:49.235Z,18.40
2018-06-22T01:06:49.885Z,18.40
2018-06-22T01:09:20.475Z,18.40
2018-06-22T01:11:51.177Z,18.30
2018-06-22T01:14:21.797Z,18.30
2018-06-22T01:16:52.415Z,18.30
2018-06-22T01:19:22.973Z,18.30
2018-06-22T01:21:53.555Z,18.30
2018-06-22T01:24:24.139Z,18.20
2018-06-22T01:26:55.918Z,18.20
2018-06-22T01:29:30.544Z,18.20
2018-06-22T01:34:32.429Z,18.00
2018-06-22T01:37:02.981Z,18.00
2018-06-22T01:39:33.646Z,17.80
2018-06-22T01:42:04.209Z,17.80
2018-06-22T01:44:34.962Z,17.70
2018-06-22T01:47:06.446Z,17.70
2018-06-22T01:49:37.285Z,17.60
2018-06-22T01:52:07.865Z,17.60
2018-06-22T01:54:38.905Z,17.50
2018-06-22T01:57:09.517Z,17.40
2018-06-22T01:59:40.205Z,17.40
2018-06-22T02:02:10.775Z,17.30
2018-06-22T02:04:41.499Z,17.30
2018-06-22T02:07:12.046Z,17.40
2018-06-22T02:09:42.575Z,17.40
2018-06-22T02:12:13.154Z,17.40
2018-06-22T02:14:46.225Z,17.50
2018-06-22T02:17:16.818Z,17.40
2018-06-22T02:19:47.375Z,17.40
2018-06-22T02:22:17.919Z,17.30
2018-06-22T02:24:48.505Z,17.30
2018-06-22T02:27:19.174Z,17.30
2018-06-22T02:29:49.702Z,17.10
2018-06-22T02:32:20.316Z,17.10
2018-06-22T02:34:51.171Z,17.10
2018-06-22T02:37:21.751Z,17.10
2018-06-22T02:39:52.297Z,17.10
2018-06-22T02:42:22.902Z,17.00
2018-06-22T02:44:53.433Z,16.90
2018-06-22T02:47:24.483Z,16.80
2018-06-22T02:49:55.111Z,16.80
2018-06-22T02:52:25.697Z,16.60
2018-06-22T02:54:56.325Z,16.60
2018-06-22T02:57:26.925Z,16.60
2018-06-22T02:59:57.504Z,16.60
2018-06-22T03:02:28.025Z,16.50
2018-06-22T03:04:58.549Z,16.40
2018-06-22T03:07:29.277Z,16.40
2018-06-22T03:09:59.889Z,16.50
2018-06-22T03:12:30.532Z,16.40
2018-06-22T03:15:01.129Z,16.40
2018-06-22T03:17:31.798Z,16.30
2018-06-22T03:20:02.333Z,16.30
2018-06-22T03:22:33.025Z,16.30
2018-06-22T03:25:03.553Z,16.30
2018-06-22T03:27:34.859Z,16.30
2018-06-22T03:30:05.502Z,16.30
2018-06-22T03:32:36.234Z,16.10
2018-06-22T03:35:06.872Z,16.20
2018-06-22T03:37:37.603Z,16.20
2018-06-22T03:40:08.136Z,16.20
2018-06-22T03:42:39.165Z,16.20
2018-06-22T03:45:09.697Z,16.20
2018-06-22T03:47:40.887Z,16.20
2018-06-22T03:50:11.430Z,16.10
2018-06-22T03:52:42.175Z,16.10
2018-06-22T03:55:12.709Z,16.00
2018-06-22T03:57:43.611Z,15.90
2018-06-22T04:00:14.173Z,15.90
2018-06-22T04:02:44.788Z,15.80
2018-06-22T04:05:15.538Z,15.80
2018-06-22T04:07:46.237Z,15.70
2018-06-22T04:10:16.803Z,15.70
2018-06-22T04:12:47.513Z,15.70
2018-06-22T04:15:18.489Z,15.80
2018-06-22T04:20:27.026Z,15.90
2018-06-22T04:22:57.886Z,15.90
2018-06-22T04:25:28.466Z,15.80
2018-06-22T04:27:59.119Z,15.60
2018-06-22T04:30:29.688Z,15.60
2018-06-22T04:33:00.323Z,15.70
2018-06-22T04:35:30.886Z,15.80
2018-06-22T04:38:01.522Z,15.80
2018-06-22T04:40:32.138Z,15.70
2018-06-22T04:43:02.893Z,15.80
2018-06-22T04:45:33.501Z,15.80
2018-06-22T04:48:04.421Z,15.90
2018-06-22T04:50:34.973Z,15.90
2018-06-22T04:53:05.759Z,15.90
2018-06-22T04:55:36.363Z,16.10
2018-06-22T05:00:37.249Z,16.20
2018-06-22T05:03:07.893Z,16.20
2018-06-22T05:05:39.248Z,16.30
2018-06-22T05:08:09.942Z,16.10
2018-06-22T05:10:40.608Z,16.20
2018-06-22T05:13:11.444Z,16.20
2018-06-22T05:15:42.342Z,16.30
2018-06-22T05:18:13.060Z,16.30
2018-06-22T05:20:43.716Z,16.40
2018-06-22T05:23:14.375Z,16.30
2018-06-22T05:25:45.008Z,16.40
2018-06-22T05:28:15.805Z,16.50
2018-06-22T05:33:16.653Z,16.40
2018-06-22T05:35:47.272Z,16.40
2018-06-22T05:38:18.182Z,16.40
2018-06-22T05:40:49.060Z,16.50
2018-06-22T05:45:49.886Z,16.60
2018-06-22T05:48:20.694Z,16.60
2018-06-22T05:50:51.367Z,16.70
2018-06-22T05:53:21.827Z,16.70
2018-06-22T05:55:52.413Z,16.80
2018-06-22T05:58:23.019Z,16.80
2018-06-22T06:00:53.945Z,16.90
2018-06-22T06:03:24.539Z,16.90
2018-06-22T06:08:25.225Z,17.00
2018-06-22T06:10:55.831Z,17.10
2018-06-22T06:13:26.491Z,17.10
2018-06-22T06:15:58.295Z,17.10
2018-06-22T06:18:28.959Z,17.10
2018-06-22T06:20:59.572Z,17.10
2018-06-22T06:26:00.417Z,17.00
2018-06-22T06:28:31.113Z,16.90
2018-06-22T06:31:01.664Z,16.90
2018-06-22T06:33:32.239Z,16.90
2018-06-22T06:36:03.144Z,17.00
2018-06-22T06:38:33.797Z,17.10
2018-06-22T06:43:34.621Z,16.70
2018-06-22T06:46:05.237Z,16.80
2018-06-22T06:48:36.150Z,16.80
2018-06-22T06:51:06.718Z,16.80
2018-06-22T06:53:39.666Z,16.90
2018-06-22T06:56:18.751Z,17.00
2018-06-22T07:01:34.830Z,17.00
2018-06-22T07:04:05.554Z,16.90
2018-06-22T07:06:36.106Z,17.00
2018-06-22T07:09:09.437Z,17.10
2018-06-22T07:11:40.007Z,17.10
2018-06-22T07:14:10.621Z,17.30
2018-06-22T07:16:42.239Z,17.40
2018-06-22T07:19:12.844Z,17.50
2018-06-22T07:21:43.526Z,17.50
2018-06-22T07:24:14.135Z,17.60
2018-06-22T07:26:44.726Z,17.70
2018-06-22T07:29:15.849Z,17.70
2018-06-22T07:31:46.389Z,17.70
2018-06-22T07:34:17.319Z,17.80
2018-06-22T07:36:47.966Z,17.70
2018-06-22T07:39:18.554Z,17.80
2018-06-22T07:41:49.093Z,17.80
2018-06-22T07:44:19.707Z,17.80
2018-06-22T07:46:50.237Z,17.80
2018-06-22T07:49:21.231Z,17.70
2018-06-22T07:51:51.850Z,17.80
2018-06-22T07:54:22.552Z,17.90
2018-06-22T07:56:53.085Z,17.90
2018-06-22T07:59:23.728Z,18.00
2018-06-22T08:01:54.455Z,18.00
2018-06-22T08:04:25.046Z,18.00
2018-06-22T08:09:25.701Z,17.70
2018-06-22T08:11:56.326Z,17.40
2018-06-22T08:19:27.076Z,17.40
2018-06-22T08:21:57.665Z,17.50
2018-06-22T08:24:28.595Z,17.50
2018-06-22T08:26:59.162Z,17.40
2018-06-22T08:29:29.921Z,17.50
2018-06-22T08:34:31.220Z,17.10
2018-06-22T08:37:01.881Z,17.10
2018-06-22T08:39:32.497Z,17.10
2018-06-22T08:42:03.213Z,17.10
2018-06-22T08:44:33.814Z,16.90
2018-06-22T08:49:34.706Z,16.60
2018-06-22T08:52:05.294Z,16.60
2018-06-22T08:54:36.377Z,16.70
2018-06-22T08:57:07.389Z,16.80
2018-06-22T08:59:37.977Z,17.00
2018-06-22T09:02:08.528Z,17.20
2018-06-22T09:04:39.161Z,17.30
2018-06-22T09:07:09.771Z,17.40
2018-06-22T09:09:40.365Z,17.40
2018-06-22T09:12:10.919Z,17.50
2018-06-22T09:14:41.529Z,17.50
2018-06-22T09:17:12.074Z,17.60
2018-06-22T09:19:42.769Z,17.70
2018-06-22T09:22:13.356Z,17.70
2018-06-22T09:24:43.940Z,17.60
2018-06-22T09:27:14.489Z,17.70
2018-06-22T09:29:45.058Z,17.60
2018-06-22T09:32:15.609Z,17.70
2018-06-22T09:34:46.273Z,17.70
2018-06-22T09:37:16.811Z,17.50
2018-06-22T09:39:47.385Z,17.40
2018-06-22T09:44:48.005Z,17.60
2018-06-22T09:47:18.706Z,17.70
2018-06-22T09:49:49.882Z,17.70
2018-06-22T09:52:20.425Z,17.70
2018-06-22T09:54:51.665Z,17.70
2018-06-22T09:57:22.229Z,17.70
2018-06-22T09:59:52.966Z,17.80
2018-06-22T10:02:23.542Z,17.80
2018-06-22T10:04:54.109Z,17.80
2018-06-22T10:07:24.705Z,17.90
2018-06-22T10:09:55.294Z,18.00
2018-06-22T10:12:25.904Z,18.10
2018-06-22T10:14:56.501Z,18.00
2018-06-22T10:17:27.015Z,18.00
2018-06-22T10:19:57.613Z,17.80
2018-06-22T10:22:28.181Z,17.80
2018-06-22T10:24:58.780Z,17.70
2018-06-22T10:27:29.294Z,17.70
2018-06-22T10:29:59.853Z,17.80
2018-06-22T10:32:30.429Z,17.70
2018-06-22T10:35:01.135Z,17.70
2018-06-22T10:37:31.691Z,17.80
2018-06-22T10:40:02.345Z,18.00
2018-06-22T10:42:32.914Z,18.20
2018-06-22T10:45:03.525Z,18.40
2018-06-22T10:47:34.131Z,18.50
2018-06-22T10:52:35.672Z,18.30
2018-06-22T10:55:06.317Z,18.10
2018-06-22T10:57:36.898Z,17.90
2018-06-22T11:00:07.923Z,18.10
2018-06-22T11:02:38.514Z,18.30
2018-06-22T11:05:09.282Z,18.40
2018-06-22T11:07:39.886Z,18.50
2018-06-22T11:10:10.565Z,18.60
2018-06-22T11:12:41.148Z,18.70
2018-06-22T11:15:11.714Z,18.90
2018-06-22T11:17:42.265Z,18.80
2018-06-22T11:20:12.844Z,18.90
2018-06-22T11:22:43.406Z,18.90
2018-06-22T11:25:14.077Z,19.10
2018-06-22T11:27:44.657Z,19.20
2018-06-22T11:30:15.342Z,19.10
2018-06-22T11:32:45.922Z,18.70
2018-06-22T11:35:16.534Z,18.50
2018-06-22T11:40:17.318Z,18.30
2018-06-22T11:42:47.874Z,18.20
2018-06-22T11:45:18.488Z,18.20
2018-06-22T11:47:49.049Z,18.30
2018-06-22T11:50:19.933Z,18.40
2018-06-22T11:52:50.473Z,18.60
2018-06-22T11:55:21.167Z,18.70
2018-06-22T12:00:21.815Z,18.70
2018-06-22T12:02:52.431Z,18.60
2018-06-22T12:05:23.043Z,18.60
2018-06-22T12:07:53.708Z,18.80
2018-06-22T12:12:54.593Z,18.50
2018-06-22T12:15:25.207Z,18.50
2018-06-22T12:17:55.762Z,18.50
2018-06-22T12:20:26.412Z,18.40
2018-06-22T12:22:56.971Z,18.50
2018-06-22T12:25:27.593Z,18.60
2018-06-22T12:27:58.454Z,18.70
2018-06-22T12:30:29.030Z,18.70
2018-06-22T12:32:59.638Z,18.60
2018-06-22T12:35:30.335Z,18.60
2018-06-22T12:38:00.941Z,18.60
2018-06-22T12:40:31.632Z,18.70
2018-06-22T12:43:02.219Z,18.70
2018-06-22T12:45:32.845Z,18.60
2018-06-22T12:48:03.474Z,18.30
2018-06-22T12:50:34.403Z,18.20
2018-06-22T12:53:04.949Z,18.20
2018-06-22T12:55:35.671Z,18.20
2018-06-22T12:58:06.618Z,18.30
2018-06-22T13:00:37.229Z,18.50
2018-06-22T13:03:07.785Z,18.50
2018-06-22T13:05:38.393Z,18.30
2018-06-22T13:08:08.957Z,18.10
2018-06-22T13:10:39.588Z,18.10
2018-06-22T13:15:40.608Z,18.20
2018-06-22T13:18:11.197Z,18.40
2018-06-22T13:20:41.950Z,18.30
2018-06-22T13:23:12.697Z,18.20
2018-06-22T13:25:43.425Z,18.10
2018-06-22T13:28:14.105Z,17.90
2018-06-22T13:30:44.831Z,17.80
2018-06-22T13:33:15.527Z,17.70
2018-06-22T13:35:46.170Z,17.70
2018-06-22T13:38:17.117Z,17.70
2018-06-22T13:40:47.879Z,17.70
2018-06-22T13:43:18.443Z,17.70
2018-06-22T13:45:49.097Z,17.50
2018-06-22T13:48:19.923Z,17.70
2018-06-22T13:50:50.552Z,17.80
2018-06-22T13:53:21.827Z,18.00
2018-06-22T13:55:52.457Z,18.20
2018-06-22T13:58:23.120Z,18.20
2018-06-22T14:03:23.794Z,18.20
2018-06-22T14:05:59.696Z,18.10
2018-06-22T14:08:30.278Z,18.30
2018-06-22T14:11:00.864Z,18.30
2018-06-22T14:13:31.564Z,18.40
2018-06-22T14:16:02.325Z,18.40
2018-06-22T14:18:33.191Z,18.50
2018-06-22T14:23:34.177Z,18.70
2018-06-22T14:26:05.053Z,18.80
2018-06-22T14:28:35.596Z,18.70
2018-06-22T14:31:06.209Z,18.50
2018-06-22T14:33:36.881Z,18.60
2018-06-22T14:36:08.478Z,18.60
2018-06-22T14:38:39.105Z,18.70
2018-06-22T14:41:09.663Z,18.90
2018-06-22T14:43:40.375Z,18.90
2018-06-22T14:46:11.018Z,18.90
2018-06-22T14:48:41.668Z,18.80
2018-06-22T14:51:12.771Z,18.50
2018-06-22T14:53:48.474Z,18.70
2018-06-22T14:56:24.169Z,20.20
2018-06-22T14:59:00.015Z,22.10
2018-06-22T15:01:35.577Z,22.70
2018-06-22T15:04:11.349Z,23.10
2018-06-22T15:06:46.961Z,23.20
2018-06-22T15:09:17.556Z,23.30
2018-06-22T15:11:48.089Z,24.20
2018-06-22T15:14:18.673Z,24.60
2018-06-22T15:16:49.236Z,25.60
2018-06-22T15:19:20.115Z,25.80
2018-06-22T15:21:50.704Z,26.30
2018-06-22T15:24:21.300Z,26.70
2018-06-22T15:26:52.027Z,26.20
2018-06-22T15:29:22.647Z,26.30
2018-06-22T15:31:53.219Z,26.50
2018-06-22T15:34:28.848Z,26.60
2018-06-22T15:37:04.439Z,25.80
2018-06-22T15:42:15.588Z,27.20
2018-06-22T15:44:51.425Z,26.30
2018-06-22T15:47:27.230Z,25.80
2018-06-22T15:50:02.983Z,26.00
2018-06-22T15:55:10.885Z,28.30
2018-06-22T15:57:41.570Z,29.60
2018-06-22T16:00:13.340Z,30.00
2018-06-22T16:02:49.125Z,31.00
2018-06-22T16:05:19.651Z,30.00
2018-06-22T16:07:50.321Z,29.10
2018-06-22T16:10:20.962Z,29.50
2018-06-22T16:12:51.568Z,30.50
2018-06-22T16:15:27.283Z,30.60
2018-06-22T16:18:02.985Z,30.60
2018-06-22T16:20:38.758Z,30.10
2018-06-22T16:23:14.508Z,31.40
2018-06-22T16:25:50.705Z,32.20
2018-06-22T16:28:21.309Z,33.00
2018-06-22T16:30:51.877Z,33.30
2018-06-22T16:33:22.478Z,34.30
2018-06-22T16:35:53.066Z,34.50
2018-06-22T16:38:23.632Z,34.90
2018-06-22T16:40:54.181Z,34.40
2018-06-22T16:43:24.861Z,34.00
2018-06-22T16:45:55.499Z,33.30
2018-06-22T16:48:26.092Z,32.10
2018-06-22T16:50:56.687Z,29.70
2018-06-22T16:53:27.284Z,28.20
2018-06-22T16:58:33.127Z,27.00
2018-06-22T17:01:03.891Z,27.00
2018-06-22T17:03:34.523Z,26.70
2018-06-22T17:06:05.405Z,26.20
2018-06-22T17:08:41.057Z,26.00
2018-06-22T17:11:16.726Z,25.40
2018-06-22T17:13:52.377Z,24.60
2018-06-22T17:16:28.281Z,23.70
2018-06-22T17:18:59.772Z,22.70
2018-06-22T17:21:30.397Z,22.10
2018-06-22T17:24:01.036Z,21.40
2018-06-22T17:26:31.642Z,20.90
2018-06-22T17:29:02.261Z,20.30
2018-06-22T17:31:32.829Z,19.90
2018-06-22T17:34:03.502Z,19.60
2018-06-22T17:36:34.075Z,19.40
2018-06-22T17:39:06.822Z,19.30
2018-06-22T17:41:37.391Z,19.10
2018-06-22T17:44:08.304Z,18.70
2018-06-22T17:46:39.020Z,18.50
2018-06-22T17:49:09.628Z,18.30
2018-06-22T17:51:40.275Z,18.20
2018-06-22T17:54:10.918Z,18.10
2018-06-22T17:56:41.563Z,18.00
2018-06-22T17:59:17.363Z,17.80
2018-06-22T18:01:53.017Z,17.60
2018-06-22T18:04:28.806Z,17.60
2018-06-22T18:07:04.501Z,17.50
2018-06-22T18:09:40.256Z,17.40
2018-06-22T18:12:15.949Z,17.30
2018-06-22T18:14:46.639Z,17.30
2018-06-22T18:17:17.406Z,17.30
2018-06-22T18:19:48.138Z,17.30
2018-06-22T18:22:19.293Z,17.30
2018-06-22T18:24:49.873Z,17.20
2018-06-22T18:27:20.558Z,17.20
2018-06-22T18:29:51.206Z,17.10
2018-06-22T18:32:21.970Z,16.90
2018-06-22T18:34:52.607Z,16.80
2018-06-22T18:37:23.245Z,16.70
2018-06-22T18:39:54.231Z,16.60
2018-06-22T18:42:25.577Z,16.40
2018-06-22T18:44:56.263Z,16.40
2018-06-22T18:47:27.225Z,16.30
2018-06-22T18:49:57.992Z,16.30
2018-06-22T18:52:33.954Z,16.30
2018-06-22T18:55:09.800Z,16.30
2018-06-22T18:57:45.503Z,16.20
2018-06-22T19:00:21.749Z,16.10
2018-06-22T19:02:57.812Z,16.00
2018-06-22T19:05:29.599Z,15.90
2018-06-22T19:08:00.446Z,15.90
2018-06-22T19:10:31.381Z,16.00
2018-06-22T19:13:02.133Z,16.00
2018-06-22T19:15:32.880Z,16.10
2018-06-22T19:18:03.826Z,16.10
2018-06-22T19:20:34.478Z,16.00
2018-06-22T19:23:05.305Z,15.90
2018-06-22T19:28:06.479Z,15.90
2018-06-22T19:30:38.121Z,15.90
2018-06-22T19:33:08.910Z,15.90
2018-06-22T19:35:39.606Z,15.80
2018-06-22T19:38:10.233Z,15.80
2018-06-22T19:40:40.838Z,15.80
2018-06-22T19:43:15.538Z,15.70
2018-06-22T19:45:51.349Z,15.80
2018-06-22T19:48:26.194Z,15.80
2018-06-22T19:51:01.688Z,15.80
2018-06-22T19:53:37.410Z,15.70
2018-06-22T19:56:08.033Z,15.70
2018-06-22T19:58:38.638Z,15.70
2018-06-22T20:01:09.319Z,15.70
2018-06-22T20:03:39.875Z,15.70
2018-06-22T20:06:10.470Z,15.70
2018-06-22T20:08:41.010Z,15.70
2018-06-22T20:11:12.104Z,15.70
2018-06-22T20:13:44.830Z,15.60
2018-06-22T20:16:15.876Z,15.60
2018-06-22T20:18:46.509Z,15.60
2018-06-22T20:21:17.073Z,15.60
2018-06-22T20:23:47.656Z,15.60
2018-06-22T20:26:18.320Z,15.60
2018-06-22T20:28:49.890Z,15.60
2018-06-22T20:31:25.519Z,15.50
2018-06-22T20:33:57.317Z,15.50
2018-06-22T20:39:08.382Z,15.50
2018-06-22T20:41:43.904Z,15.50
2018-06-22T20:44:19.626Z,15.50
2018-06-22T20:46:55.245Z,15.50
2018-06-22T20:49:30.821Z,15.40
2018-06-22T20:52:01.434Z,15.40
2018-06-22T20:54:32.069Z,15.30
2018-06-22T20:59:32.741Z,15.20
2018-06-22T21:02:03.281Z,15.20
2018-06-22T21:04:33.863Z,15.20
2018-06-22T21:07:04.369Z,15.20
2018-06-22T21:09:34.933Z,15.10
2018-06-22T21:17:05.876Z,15.10
2018-06-22T21:19:36.517Z,15.00
2018-06-22T21:22:11.159Z,15.00
2018-06-22T21:27:17.892Z,15.00
2018-06-22T21:29:53.385Z,15.00
2018-06-22T21:32:28.973Z,15.00
2018-06-22T21:35:04.701Z,15.00
2018-06-22T21:37:40.517Z,14.90
2018-06-22T21:40:11.094Z,14.90
2018-06-22T21:42:41.781Z,14.90
2018-06-22T21:45:12.356Z,14.90
2018-06-22T21:47:42.885Z,14.80
2018-06-22T21:50:13.409Z,14.80
2018-06-22T21:52:44.035Z,14.60
2018-06-22T21:55:14.610Z,14.60
2018-06-22T21:57:45.183Z,14.50
2018-06-22T22:00:34.591Z,14.50
2018-06-22T22:03:05.189Z,14.40
2018-06-22T22:05:35.717Z,14.40
2018-06-22T22:10:41.564Z,14.40
2018-06-22T22:13:12.141Z,14.30
2018-06-22T22:15:42.670Z,14.30
2018-06-22T22:18:13.140Z,14.30
2018-06-22T22:20:43.688Z,14.20
2018-06-22T22:23:14.259Z,14.20
2018-06-22T22:25:44.774Z,14.10
2018-06-22T22:28:15.331Z,14.00
2018-06-22T22:30:45.859Z,14.00
2018-06-22T22:33:16.343Z,13.90
2018-06-22T22:35:46.963Z,13.90
2018-06-22T22:38:17.476Z,13.90
2018-06-22T22:40:48.145Z,13.80
2018-06-22T22:43:18.695Z,13.70
2018-06-22T22:45:49.243Z,13.70
2018-06-22T22:48:19.797Z,13.70
2018-06-22T22:50:50.359Z,13.70
2018-06-22T22:53:20.933Z,13.80
2018-06-22T22:55:51.437Z,13.80
2018-06-22T22:58:21.977Z,13.70
2018-06-22T23:00:52.552Z,13.60
2018-06-22T23:03:23.142Z,13.60
2018-06-22T23:05:53.694Z,13.60
2018-06-22T23:08:24.242Z,13.50
2018-06-22T23:10:54.769Z,13.40
2018-06-22T23:13:25.581Z,13.40
2018-06-22T23:15:56.129Z,13.40
2018-06-22T23:18:26.666Z,13.30
2018-06-22T23:20:57.365Z,13.30
2018-06-22T23:23:38.131Z,13.30
2018-06-22T23:26:08.734Z,13.20
2018-06-22T23:28:39.322Z,13.30
2018-06-22T23:31:09.848Z,13.20
2018-06-22T23:33:40.400Z,13.10
2018-06-22T23:36:10.925Z,13.10
2018-06-22T23:38:41.533Z,12.90
2018-06-22T23:41:12.045Z,13.00
2018-06-22T23:43:42.585Z,13.00
2018-06-22T23:46:13.133Z,13.00
2018-06-22T23:48:43.692Z,13.10
2018-06-22T23:51:14.204Z,13.10
2018-06-22T23:53:44.745Z,13.10
2018-06-22T23:56:15.359Z,13.10
2018-06-22T23:58:45.912Z,13.10
